Jack Holland — WDF3615 — position and weather

sailwx.info

Track history (hours):
 
Tides and Currents Weather Stations Pressure Air Temp Water Temp Dewpoint Dewpoint Depression Visibility Wind Speed Wind Dir Waves Ship Positions

Jack Holland

Owner: Norfolk Tug Company, Norfolk, VA. More information available from US FCC via Universal Licensing System and Coast Guard Vessel Documentation Center.

Last reported at 2016-Jul-29 07:33 UTC. Time now 2016-Jul-29 07:54 UTC.
Position N 36°50' W 076°16'.

Length 22 m; draft 2.5 m.

Type: Tug. MMSI: 367442020.

Date/timePositionNaut miles runAvg speedWind from/ knotsBaromVisibWave heightAir tempDewpointWater temp
2016-Jul-29 07:33N 36°50' W 076°16'0 0.0
2016-Jul-29 06:31N 36°50' W 076°16'0 0.0
2016-Jul-29 05:33N 36°50' W 076°16'0 0.0
2016-Jul-29 04:33N 36°50' W 076°16'0 0.0
2016-Jul-29 03:33N 36°50' W 076°16'0 0.0
2016-Jul-29 02:33N 36°50' W 076°16'0 0.0
2016-Jul-29 01:33N 36°50' W 076°16'0 0.0
2016-Jul-29 00:31N 36°50' W 076°16'0 0.0
2016-Jul-28 23:33N 36°50' W 076°16'0 0.0
2016-Jul-28 21:33N 36°50' W 076°16'2 2.5
2016-Jul-28 20:33N 36°52' W 076°19'2 1.9
2016-Jul-28 19:31N 36°53' W 076°20'3 2.5
2016-Jul-28 18:23N 36°56' W 076°20'6 7.0
2016-Jul-28 17:33N 36°51' W 076°18'1 0.6
2016-Jul-28 15:33N 36°49' W 076°17'3 3.0
2016-Jul-28 14:33N 36°52' W 076°19'8 0.4
2016-Jul-27 19:08N 36°55' W 076°11'8 3.0
2016-Jul-27 16:31N 36°55' W 076°20'2 2.4
2016-Jul-27 15:33N 36°53' W 076°20'0 0.0
2016-Jul-27 14:32N 36°53' W 076°20'0 0.0
2016-Jul-27 13:33N 36°53' W 076°20'1 0.7
2016-Jul-27 11:27N 36°54' W 076°20'4 4.0
2016-Jul-27 10:33N 36°51' W 076°18'2 0.6
2016-Jul-27 07:33N 36°50' W 076°16'0 0.0
2016-Jul-27 00:20N 36°50' W 076°16'0 0.0
2016-Jul-26 23:33N 36°50' W 076°16'0 0.0
2016-Jul-26 22:33N 36°50' W 076°16'0 0.0
2016-Jul-26 21:33N 36°50' W 076°16'0 0.0
2016-Jul-26 20:32N 36°50' W 076°16'0 0.0
2016-Jul-26 19:33N 36°50' W 076°16'0 0.0
2016-Jul-26 18:33N 36°50' W 076°16'0 0.0
2016-Jul-26 17:33N 36°50' W 076°16'0 0.0
2016-Jul-26 16:33N 36°50' W 076°16'0 0.5
2016-Jul-26 15:33N 36°50' W 076°17'1 1.3
2016-Jul-26 14:33N 36°51' W 076°18'112 3.8
2016-Jul-25 09:27N 38°38' W 075°37'0 0.0
2016-Jul-25 08:33N 38°38' W 075°37'0 0.0
2016-Jul-25 07:26N 38°38' W 075°37'0 0.0
2016-Jul-25 05:33N 38°38' W 075°37'0 0.0
2016-Jul-25 04:33N 38°38' W 075°37'0 0.0
2016-Jul-25 03:33N 38°38' W 075°37'4 0.3
2016-Jul-24 13:33N 38°35' W 075°40'6 5.9
2016-Jul-24 12:34N 38°31' W 075°45'5 5.4
2016-Jul-24 11:33N 38°26' W 075°49'6 5.6
2016-Jul-24 10:33N 38°21' W 075°52'7 6.8
2016-Jul-24 09:34N 38°15' W 075°56'8 7.0
2016-Jul-24 08:22N 38°07' W 075°59'75 7.7
2016-Jul-23 22:32N 36°54' W 076°20'4 4.2
2016-Jul-23 21:33N 36°50' W 076°17'0 0.4
2016-Jul-23 20:25N 36°50' W 076°16'0 0.0
2016-Jul-23 19:23N 36°50' W 076°16'0 0.0
2016-Jul-23 18:28N 36°50' W 076°16'0 0.0
2016-Jul-23 17:32N 36°50' W 076°16'0 0.0
2016-Jul-23 15:27N 36°50' W 076°16'0 0.0
2016-Jul-23 13:17N 36°50' W 076°16'0 0.0
2016-Jul-23 11:32N 36°50' W 076°16'0 0.0
2016-Jul-23 10:09N 36°50' W 076°16'0 0.0
2016-Jul-23 06:21N 36°50' W 076°16'1 0.1
2016-Jul-22 20:33N 36°51' W 076°17'4 3.7
2016-Jul-22 19:32N 36°53' W 076°21'0 0.0
2016-Jul-22 16:33N 36°53' W 076°21'1 1.1
2016-Jul-22 15:33N 36°52' W 076°20'4 3.6
2016-Jul-22 14:33N 36°50' W 076°16'0 0.0
2016-Jul-22 13:33N 36°50' W 076°16'0 0.1
2016-Jul-22 12:33N 36°50' W 076°16'0 0.1
2016-Jul-22 11:33N 36°50' W 076°16'0 0.0
2016-Jul-22 10:33N 36°50' W 076°16'0 0.2
2016-Jul-22 09:33N 36°50' W 076°16'7 5.4
2016-Jul-22 08:19N 36°56' W 076°20'1 0.0
2016-Jul-20 21:33N 36°55' W 076°20'6 5.9
2016-Jul-20 20:33N 36°50' W 076°16'0 0.1
2016-Jul-20 19:33N 36°50' W 076°16'0 0.3
2016-Jul-20 18:22N 36°50' W 076°16'1 1.1
2016-Jul-20 17:32N 36°50' W 076°15'3 3.4
2016-Jul-20 16:33N 36°52' W 076°19'  
Track history (hours):
 
Tides and Currents Weather Stations Pressure Air Temp Water Temp Dewpoint Dewpoint Depression Visibility Wind Speed Wind Dir Waves Ship Positions

Jack Holland

Owner: Norfolk Tug Company, Norfolk, VA. More information available from US FCC via Universal Licensing System and Coast Guard Vessel Documentation Center.

Last reported at 2016-Jul-29 07:33 UTC. Time now 2016-Jul-29 07:54 UTC.
Position N 36°50' W 076°16'.

Length 22 m; draft 2.5 m.

Type: Tug. MMSI: 367442020.

Date/timePositionNaut miles runAvg speedWind from/ knotsBaromVisibWave heightAir tempDewpointWater temp
2016-Jul-29 07:33N 36°50' W 076°16'0 0.0
2016-Jul-29 06:31N 36°50' W 076°16'0 0.0
2016-Jul-29 05:33N 36°50' W 076°16'0 0.0
2016-Jul-29 04:33N 36°50' W 076°16'0 0.0
2016-Jul-29 03:33N 36°50' W 076°16'0 0.0
2016-Jul-29 02:33N 36°50' W 076°16'0 0.0
2016-Jul-29 01:33N 36°50' W 076°16'0 0.0
2016-Jul-29 00:31N 36°50' W 076°16'0 0.0
2016-Jul-28 23:33N 36°50' W 076°16'0 0.0
2016-Jul-28 21:33N 36°50' W 076°16'2 2.5
2016-Jul-28 20:33N 36°52' W 076°19'2 1.9
2016-Jul-28 19:31N 36°53' W 076°20'3 2.5
2016-Jul-28 18:23N 36°56' W 076°20'6 7.0
2016-Jul-28 17:33N 36°51' W 076°18'1 0.6
2016-Jul-28 15:33N 36°49' W 076°17'3 3.0
2016-Jul-28 14:33N 36°52' W 076°19'8 0.4
2016-Jul-27 19:08N 36°55' W 076°11'8 3.0
2016-Jul-27 16:31N 36°55' W 076°20'2 2.4
2016-Jul-27 15:33N 36°53' W 076°20'0 0.0
2016-Jul-27 14:32N 36°53' W 076°20'0 0.0
2016-Jul-27 13:33N 36°53' W 076°20'1 0.7
2016-Jul-27 11:27N 36°54' W 076°20'4 4.0
2016-Jul-27 10:33N 36°51' W 076°18'2 0.6
2016-Jul-27 07:33N 36°50' W 076°16'0 0.0
2016-Jul-27 00:20N 36°50' W 076°16'0 0.0
2016-Jul-26 23:33N 36°50' W 076°16'0 0.0
2016-Jul-26 22:33N 36°50' W 076°16'0 0.0
2016-Jul-26 21:33N 36°50' W 076°16'0 0.0
2016-Jul-26 20:32N 36°50' W 076°16'0 0.0
2016-Jul-26 19:33N 36°50' W 076°16'0 0.0
2016-Jul-26 18:33N 36°50' W 076°16'0 0.0
2016-Jul-26 17:33N 36°50' W 076°16'0 0.0
2016-Jul-26 16:33N 36°50' W 076°16'0 0.5
2016-Jul-26 15:33N 36°50' W 076°17'1 1.3
2016-Jul-26 14:33N 36°51' W 076°18'112 3.8
2016-Jul-25 09:27N 38°38' W 075°37'0 0.0
2016-Jul-25 08:33N 38°38' W 075°37'0 0.0
2016-Jul-25 07:26N 38°38' W 075°37'0 0.0
2016-Jul-25 05:33N 38°38' W 075°37'0 0.0
2016-Jul-25 04:33N 38°38' W 075°37'0 0.0
2016-Jul-25 03:33N 38°38' W 075°37'4 0.3
2016-Jul-24 13:33N 38°35' W 075°40'6 5.9
2016-Jul-24 12:34N 38°31' W 075°45'5 5.4
2016-Jul-24 11:33N 38°26' W 075°49'6 5.6
2016-Jul-24 10:33N 38°21' W 075°52'7 6.8
2016-Jul-24 09:34N 38°15' W 075°56'8 7.0
2016-Jul-24 08:22N 38°07' W 075°59'75 7.7
2016-Jul-23 22:32N 36°54' W 076°20'4 4.2
2016-Jul-23 21:33N 36°50' W 076°17'0 0.4
2016-Jul-23 20:25N 36°50' W 076°16'0 0.0
2016-Jul-23 19:23N 36°50' W 076°16'0 0.0
2016-Jul-23 18:28N 36°50' W 076°16'0 0.0
2016-Jul-23 17:32N 36°50' W 076°16'0 0.0
2016-Jul-23 15:27N 36°50' W 076°16'0 0.0
2016-Jul-23 13:17N 36°50' W 076°16'0 0.0
2016-Jul-23 11:32N 36°50' W 076°16'0 0.0
2016-Jul-23 10:09N 36°50' W 076°16'0 0.0
2016-Jul-23 06:21N 36°50' W 076°16'1 0.1
2016-Jul-22 20:33N 36°51' W 076°17'4 3.7
2016-Jul-22 19:32N 36°53' W 076°21'0 0.0
2016-Jul-22 16:33N 36°53' W 076°21'1 1.1
2016-Jul-22 15:33N 36°52' W 076°20'4 3.6
2016-Jul-22 14:33N 36°50' W 076°16'0 0.0
2016-Jul-22 13:33N 36°50' W 076°16'0 0.1
2016-Jul-22 12:33N 36°50' W 076°16'0 0.1
2016-Jul-22 11:33N 36°50' W 076°16'0 0.0
2016-Jul-22 10:33N 36°50' W 076°16'0 0.2
2016-Jul-22 09:33N 36°50' W 076°16'7 5.4
2016-Jul-22 08:19N 36°56' W 076°20'1 0.0
2016-Jul-20 21:33N 36°55' W 076°20'6 5.9
2016-Jul-20 20:33N 36°50' W 076°16'0 0.1
2016-Jul-20 19:33N 36°50' W 076°16'0 0.3
2016-Jul-20 18:22N 36°50' W 076°16'1 1.1
2016-Jul-20 17:32N 36°50' W 076°15'3 3.4
2016-Jul-20 16:33N 36°52' W 076°19'  

Dump ship's entire track history